Terminal Aerodrome Forecast
Issued by NWS

Home | Current Version | Previous Version | Text Only | Print | Product List | Glossary On
Versions: 1 2 3 4 5 6 7 8 9 10 11 12 13 14 15 16 17 18 19 20
000
FTUS46 KSEW 250500 RRA
TAFOLM
TAF
KOLM 250543Z 2506/2606 02006KT P6SM -RA OVC040
      TEMPO 2506/2508 3SM -RA BR BKN006 OVC040
     FM250800 02004KT 6SM BR SCT006 OVC035
     FM251800 18008KT P6SM -RA BKN020 OVC035=

USA.gov is the U.S. government's official web portal to all federal, state and local government web resources and services.